Aviation Digital Data Service (ADDS)

Output produced by METARs form (1122 UTC 19 February 2019)
found at http://www.aviationweather.gov/metar/data/
 
Forecast for: DTNH (ENFIDHA , TN)
Text: TAF DTNH 190500Z 1906/2006 18005KT CAVOK
Forecast period: 0600 UTC 19 February 2019 to 0600 UTC 20 February 2019
Forecast type: FROM: standard forecast or significant change
Winds: from the S (180 degrees) at 6 MPH (5 knots; 2.6 m/s)
Visibility: 6 or more miles 10+ km)
Ceiling: unknown
Clouds: missing
Weather: NSW  (no significant weather)
Text: PROB40
Forecast period: 0600 to 0800 UTC 19 February 2019
Forecast type: TEMPORARY: The following changes expected for less than half the time period
Visibility: 1.24 miles (2.00 km)
Ceiling: unknown
Clouds: missing
Weather: BR  (mist)